createdAt,value
2018-05-14T00:00:14.572Z,20.00
2018-05-14T00:02:42.106Z,19.90
2018-05-14T00:05:10.220Z,19.90
2018-05-14T00:07:38.416Z,19.90
2018-05-14T00:10:05.845Z,19.70
2018-05-14T00:12:33.303Z,19.80
2018-05-14T00:15:00.739Z,19.80
2018-05-14T00:17:28.166Z,19.80
2018-05-14T00:19:55.601Z,19.80
2018-05-14T00:22:23.026Z,19.80
2018-05-14T00:24:51.225Z,19.80
2018-05-14T00:27:18.658Z,19.70
2018-05-14T00:29:46.093Z,19.80
2018-05-14T00:32:13.521Z,19.80
2018-05-14T00:34:41.718Z,19.80
2018-05-14T00:37:09.925Z,19.70
2018-05-14T00:39:37.348Z,19.60
2018-05-14T00:42:05.555Z,19.80
2018-05-14T00:44:33.740Z,19.70
2018-05-14T00:47:01.184Z,19.60
2018-05-14T00:49:28.691Z,19.70
2018-05-14T00:51:56.060Z,19.70
2018-05-14T00:54:23.488Z,19.70
2018-05-14T00:56:50.966Z,19.70
2018-05-14T00:59:18.405Z,19.70
2018-05-14T01:01:45.844Z,19.70
2018-05-14T01:04:13.283Z,19.70
2018-05-14T01:06:40.800Z,19.60
2018-05-14T01:09:08.145Z,19.60
2018-05-14T01:11:35.580Z,19.60
2018-05-14T01:14:03.023Z,19.60
2018-05-14T01:16:30.467Z,19.60
2018-05-14T01:18:57.892Z,19.60
2018-05-14T01:21:25.346Z,19.60
2018-05-14T01:23:52.772Z,19.50
2018-05-14T01:26:20.198Z,19.50
2018-05-14T01:28:47.613Z,19.50
2018-05-14T01:31:15.045Z,19.40
2018-05-14T01:33:42.512Z,19.40
2018-05-14T01:36:09.941Z,19.30
2018-05-14T01:38:37.380Z,19.40
2018-05-14T01:41:04.803Z,19.30
2018-05-14T01:43:32.234Z,19.30
2018-05-14T01:45:59.666Z,19.30
2018-05-14T01:48:27.856Z,19.20
2018-05-14T01:50:56.056Z,19.20
2018-05-14T01:53:24.253Z,19.10
2018-05-14T01:55:51.700Z,19.00
2018-05-14T01:58:19.909Z,19.10
2018-05-14T02:00:47.341Z,19.00
2018-05-14T02:03:14.769Z,19.20
2018-05-14T02:05:42.207Z,19.30
2018-05-14T02:08:10.401Z,19.10
2018-05-14T02:10:38.589Z,19.10
2018-05-14T02:13:06.801Z,19.00
2018-05-14T02:15:34.236Z,18.80
2018-05-14T02:18:02.440Z,19.00
2018-05-14T02:20:29.866Z,18.70
2018-05-14T02:22:57.290Z,18.90
2018-05-14T02:25:24.717Z,18.90
2018-05-14T02:27:52.135Z,18.80
2018-05-14T02:30:19.557Z,18.80
2018-05-14T02:32:47.758Z,18.80
2018-05-14T02:35:15.953Z,18.80
2018-05-14T02:37:44.134Z,18.70
2018-05-14T02:40:12.376Z,18.70
2018-05-14T02:42:39.805Z,18.50
2018-05-14T02:45:07.224Z,18.70
2018-05-14T02:47:34.669Z,18.70
2018-05-14T02:50:02.489Z,18.60
2018-05-14T02:52:29.927Z,18.30
2018-05-14T02:54:57.350Z,18.60
2018-05-14T02:57:25.541Z,18.60
2018-05-14T02:59:52.983Z,18.40
2018-05-14T03:02:20.402Z,18.60
2018-05-14T03:04:47.910Z,18.60
2018-05-14T03:07:15.250Z,18.60
2018-05-14T03:09:42.681Z,18.50
2018-05-14T03:12:10.906Z,18.50
2018-05-14T03:14:38.341Z,18.30
2018-05-14T03:17:06.523Z,18.40
2018-05-14T03:19:33.956Z,18.20
2018-05-14T03:22:01.397Z,18.40
2018-05-14T03:24:28.812Z,18.40
2018-05-14T03:26:56.249Z,18.50
2018-05-14T03:29:23.683Z,18.40
2018-05-14T03:31:51.121Z,18.50
2018-05-14T03:34:18.532Z,18.40
2018-05-14T03:36:45.970Z,18.40
2018-05-14T03:39:14.160Z,18.40
2018-05-14T03:41:42.361Z,18.50
2018-05-14T03:44:09.796Z,18.20
2018-05-14T03:46:37.289Z,18.50
2018-05-14T03:49:04.696Z,18.50
2018-05-14T03:51:32.121Z,18.50
2018-05-14T03:54:00.332Z,18.40
2018-05-14T03:56:27.752Z,18.20
2018-05-14T03:59:07.208Z,18.40
2018-05-14T04:01:46.439Z,18.40
2018-05-14T04:04:26.590Z,18.50
2018-05-14T04:06:54.027Z,18.30
2018-05-14T04:09:22.221Z,18.40
2018-05-14T04:11:50.478Z,18.20
2018-05-14T04:14:17.910Z,18.40
2018-05-14T04:16:45.354Z,18.40
2018-05-14T04:19:13.537Z,18.40
2018-05-14T04:21:40.973Z,18.20
2018-05-14T04:24:08.400Z,18.50
2018-05-14T04:26:35.844Z,18.40
2018-05-14T04:29:04.026Z,18.40
2018-05-14T04:31:32.251Z,18.40
2018-05-14T04:33:59.675Z,18.20
2018-05-14T04:36:27.857Z,18.40
2018-05-14T04:38:56.073Z,18.30
2018-05-14T04:41:23.489Z,18.10
2018-05-14T04:43:50.929Z,18.30
2018-05-14T04:46:18.356Z,18.20
2018-05-14T04:48:46.605Z,18.20
2018-05-14T04:51:14.003Z,18.00
2018-05-14T04:53:41.430Z,18.10
2018-05-14T04:56:08.860Z,18.00
2018-05-14T04:58:37.056Z,18.00
2018-05-14T05:01:05.269Z,17.90
2018-05-14T05:03:32.709Z,17.80
2018-05-14T05:06:00.960Z,18.00
2018-05-14T05:08:28.372Z,17.80
2018-05-14T05:10:55.807Z,18.00
2018-05-14T05:13:23.275Z,18.00
2018-05-14T05:15:50.689Z,17.80
2018-05-14T05:18:18.182Z,18.00
2018-05-14T05:20:45.600Z,18.00
2018-05-14T05:23:13.796Z,18.00
2018-05-14T05:25:42.069Z,18.10
2018-05-14T05:28:09.510Z,17.80
2018-05-14T05:30:36.945Z,18.00
2018-05-14T05:33:04.525Z,18.00
2018-05-14T05:35:31.949Z,17.80
2018-05-14T05:37:59.417Z,18.00
2018-05-14T05:40:26.793Z,18.00
2018-05-14T05:42:54.998Z,18.00
2018-05-14T05:45:23.303Z,17.90
2018-05-14T05:47:50.661Z,17.70
2018-05-14T05:50:18.086Z,17.90
2018-05-14T05:52:45.513Z,18.00
2018-05-14T05:55:12.952Z,18.00
2018-05-14T05:57:41.153Z,18.00
2018-05-14T06:00:09.344Z,18.00
2018-05-14T06:02:36.771Z,17.90
2018-05-14T06:05:04.205Z,18.10
2018-05-14T06:07:31.644Z,18.20
2018-05-14T06:09:59.834Z,18.20
2018-05-14T06:12:27.284Z,18.10
2018-05-14T06:14:54.711Z,18.30
2018-05-14T06:17:22.145Z,18.50
2018-05-14T06:19:50.344Z,18.60
2018-05-14T06:22:17.814Z,18.50
2018-05-14T06:24:45.204Z,18.60
2018-05-14T06:27:12.629Z,18.70
2018-05-14T06:29:40.839Z,18.70
2018-05-14T06:32:09.021Z,18.60
2018-05-14T06:34:36.445Z,18.70
2018-05-14T06:37:03.903Z,18.50
2018-05-14T06:39:31.338Z,18.70
2018-05-14T06:41:58.794Z,18.50
2018-05-14T06:44:27.080Z,18.60
2018-05-14T06:46:54.453Z,18.40
2018-05-14T06:49:21.914Z,18.50
2018-05-14T06:51:50.106Z,18.60
2018-05-14T06:54:17.542Z,18.50
2018-05-14T06:56:44.977Z,18.60
2018-05-14T06:59:12.418Z,18.50
2018-05-14T07:01:39.816Z,18.40
2018-05-14T07:04:07.257Z,18.20
2018-05-14T07:06:35.456Z,18.30
2018-05-14T07:09:02.898Z,18.20
2018-05-14T07:11:30.447Z,18.40
2018-05-14T07:13:57.809Z,18.40
2018-05-14T07:16:25.251Z,19.10
2018-05-14T07:18:52.670Z,19.10
2018-05-14T07:21:20.104Z,19.00
2018-05-14T07:23:47.552Z,18.90
2018-05-14T07:26:14.979Z,18.80
2018-05-14T07:28:42.409Z,18.80
2018-05-14T07:31:09.838Z,18.60
2018-05-14T07:33:37.248Z,18.60
2018-05-14T07:36:04.710Z,18.70
2018-05-14T07:38:32.162Z,18.70
2018-05-14T07:40:59.620Z,18.90
2018-05-14T07:43:27.038Z,19.00
2018-05-14T07:45:54.469Z,18.80
2018-05-14T07:48:21.898Z,18.60
2018-05-14T07:50:49.343Z,18.50
2018-05-14T07:53:16.796Z,18.50
2018-05-14T07:55:44.225Z,18.50
2018-05-14T07:58:12.436Z,18.60
2018-05-14T08:00:39.873Z,18.60
2018-05-14T08:03:07.284Z,18.60
2018-05-14T08:05:34.790Z,18.30
2018-05-14T08:08:02.183Z,18.10
2018-05-14T08:10:29.626Z,17.80
2018-05-14T08:12:57.067Z,17.80
2018-05-14T08:15:24.489Z,17.50
2018-05-14T08:17:51.935Z,17.20
2018-05-14T08:20:19.412Z,16.80
2018-05-14T08:22:46.856Z,16.90
2018-05-14T08:25:14.305Z,16.50
2018-05-14T08:27:41.738Z,16.20
2018-05-14T08:30:09.185Z,16.00
2018-05-14T08:32:36.627Z,15.80
2018-05-14T08:35:04.091Z,15.60
2018-05-14T08:37:31.528Z,15.50
2018-05-14T08:39:59.738Z,15.60
2018-05-14T08:42:28.041Z,15.70
2018-05-14T08:44:55.401Z,15.70
2018-05-14T08:47:22.860Z,15.90
2018-05-14T08:49:51.108Z,16.00
2018-05-14T08:52:18.537Z,16.00
2018-05-14T08:54:46.088Z,16.10
2018-05-14T08:57:14.184Z,16.00
2018-05-14T08:59:41.620Z,16.00
2018-05-14T09:02:09.093Z,16.00
2018-05-14T09:04:36.517Z,16.00
2018-05-14T09:07:03.959Z,16.00
2018-05-14T09:09:32.164Z,15.90
2018-05-14T09:11:59.619Z,15.90
2018-05-14T09:14:27.816Z,16.00
2018-05-14T09:16:55.257Z,15.90
2018-05-14T09:19:22.789Z,16.00
2018-05-14T09:21:50.133Z,16.10
2018-05-14T09:24:17.549Z,16.00
2018-05-14T09:26:44.992Z,16.10
2018-05-14T09:29:12.450Z,16.10
2018-05-14T09:31:39.889Z,16.20
2018-05-14T09:34:08.085Z,16.30
2018-05-14T09:36:35.572Z,16.30
2018-05-14T09:39:02.998Z,16.40
2018-05-14T09:41:31.201Z,16.60
2018-05-14T09:43:58.627Z,16.60
2018-05-14T09:46:26.066Z,16.70
2018-05-14T09:48:53.516Z,16.90
2018-05-14T09:51:21.716Z,17.10
2018-05-14T09:53:49.153Z,17.10
2018-05-14T09:56:17.363Z,17.30
2018-05-14T09:58:44.801Z,17.30
2018-05-14T10:01:12.222Z,17.50
2018-05-14T10:03:39.708Z,17.60
2018-05-14T10:06:07.859Z,17.90
2018-05-14T10:08:36.048Z,18.00
2018-05-14T10:11:03.487Z,18.00
2018-05-14T10:13:30.932Z,18.20
2018-05-14T10:15:58.376Z,18.40
2018-05-14T10:18:25.806Z,18.30
2018-05-14T10:20:54.033Z,18.40
2018-05-14T10:23:21.457Z,18.40
2018-05-14T10:25:48.985Z,18.50
2018-05-14T10:28:16.421Z,18.60
2018-05-14T10:30:43.848Z,18.70
2018-05-14T10:33:11.284Z,18.70
2018-05-14T10:35:38.713Z,18.90
2018-05-14T10:38:06.934Z,19.20
2018-05-14T10:40:35.181Z,19.30
2018-05-14T10:43:02.551Z,19.30
2018-05-14T10:45:29.989Z,19.50
2018-05-14T10:47:57.409Z,19.60
2018-05-14T10:50:24.835Z,19.70
2018-05-14T10:52:52.355Z,19.90
2018-05-14T10:55:19.715Z,20.10
2018-05-14T10:57:47.934Z,20.20
2018-05-14T11:00:15.366Z,20.20
2018-05-14T11:02:42.789Z,20.20
2018-05-14T11:05:10.210Z,20.40
2018-05-14T11:07:38.430Z,20.60
2018-05-14T11:10:05.884Z,20.70
2018-05-14T11:12:33.305Z,20.70
2018-05-14T11:15:00.728Z,20.90
2018-05-14T11:17:28.156Z,21.10
2018-05-14T11:19:55.589Z,21.10
2018-05-14T11:22:23.026Z,21.20
2018-05-14T11:24:50.449Z,21.30
2018-05-14T11:27:17.886Z,21.40
2018-05-14T11:29:45.351Z,21.50
2018-05-14T11:32:12.801Z,21.50
2018-05-14T11:34:41.095Z,21.50
2018-05-14T11:37:08.556Z,21.50
2018-05-14T11:39:36.744Z,21.80
2018-05-14T11:42:04.917Z,21.70
2018-05-14T11:44:32.350Z,21.70
2018-05-14T11:46:59.794Z,21.80
2018-05-14T11:49:27.197Z,22.00
2018-05-14T11:51:54.625Z,22.10
2018-05-14T11:54:22.061Z,22.20
2018-05-14T11:56:50.249Z,22.30
2018-05-14T11:59:18.441Z,22.40
2018-05-14T12:01:46.628Z,22.50
2018-05-14T12:04:14.040Z,22.50
2018-05-14T12:06:41.462Z,22.50
2018-05-14T12:09:09.676Z,22.50
2018-05-14T12:11:37.129Z,22.50
2018-05-14T12:14:05.327Z,22.70
2018-05-14T12:16:33.536Z,22.90
2018-05-14T12:19:00.956Z,22.90
2018-05-14T12:21:28.395Z,23.00
2018-05-14T12:23:55.821Z,23.00
2018-05-14T12:26:23.245Z,23.00
2018-05-14T12:28:50.659Z,23.00
2018-05-14T12:31:18.118Z,23.20
2018-05-14T12:33:45.530Z,23.20
2018-05-14T12:36:12.950Z,23.40
2018-05-14T12:38:41.132Z,23.50
2018-05-14T12:41:08.596Z,23.50
2018-05-14T12:43:36.039Z,23.60
2018-05-14T12:46:03.528Z,23.60
2018-05-14T12:48:30.912Z,23.70
2018-05-14T12:50:58.340Z,23.70
2018-05-14T12:53:25.768Z,24.00
2018-05-14T12:55:53.200Z,24.10
2018-05-14T12:58:20.629Z,24.30
2018-05-14T13:00:48.046Z,24.40
2018-05-14T13:03:15.470Z,24.60
2018-05-14T13:05:42.904Z,24.50
2018-05-14T13:08:11.108Z,24.60
2018-05-14T13:10:38.540Z,24.70
2018-05-14T13:13:06.047Z,25.00
2018-05-14T13:15:33.412Z,25.30
2018-05-14T13:18:01.721Z,25.60
2018-05-14T13:20:29.132Z,25.90
2018-05-14T13:22:56.566Z,25.90
2018-05-14T13:25:23.974Z,25.90
2018-05-14T13:27:51.403Z,25.60
2018-05-14T13:30:18.837Z,25.20
2018-05-14T13:32:47.043Z,24.60
2018-05-14T13:35:15.437Z,24.60
2018-05-14T13:37:44.268Z,24.00
2018-05-14T13:40:12.288Z,23.30
2018-05-14T13:42:42.421Z,23.30
2018-05-14T13:45:13.437Z,23.10
2018-05-14T13:47:43.715Z,22.90
2018-05-14T13:50:16.078Z,22.70
2018-05-14T13:52:49.220Z,22.60
2018-05-14T13:55:18.251Z,22.60
2018-05-14T13:57:46.901Z,22.50
2018-05-14T14:00:18.125Z,22.60
2018-05-14T14:02:49.284Z,22.60
2018-05-14T14:05:18.355Z,22.50
2018-05-14T14:07:48.435Z,22.40
2018-05-14T14:10:17.152Z,22.30
2018-05-14T14:12:46.921Z,22.20
2018-05-14T14:15:15.304Z,22.20
2018-05-14T14:17:42.907Z,22.20
2018-05-14T14:20:10.389Z,22.20
2018-05-14T14:22:37.833Z,22.10
2018-05-14T14:25:05.314Z,22.00
2018-05-14T14:27:32.724Z,21.90
2018-05-14T14:30:00.146Z,21.60
2018-05-14T14:32:27.589Z,21.40
2018-05-14T14:34:55.779Z,21.30
2018-05-14T14:37:23.962Z,21.30
2018-05-14T14:39:52.166Z,21.30
2018-05-14T14:42:19.576Z,21.30
2018-05-14T14:44:47.010Z,21.30
2018-05-14T14:47:14.438Z,21.30
2018-05-14T14:49:41.860Z,21.20
2018-05-14T14:52:09.298Z,21.10
2018-05-14T14:54:36.748Z,21.00
2018-05-14T14:57:04.205Z,20.60
2018-05-14T14:59:31.669Z,20.60
2018-05-14T15:01:59.109Z,20.60
2018-05-14T15:04:26.550Z,20.50
2018-05-14T15:06:54.783Z,20.60
2018-05-14T15:09:22.200Z,20.60
2018-05-14T15:11:50.393Z,20.60
2018-05-14T15:14:18.606Z,20.60
2018-05-14T15:16:46.028Z,20.60
2018-05-14T15:19:13.461Z,20.60
2018-05-14T15:21:40.947Z,20.60
2018-05-14T15:24:08.530Z,20.70
2018-05-14T15:26:36.080Z,20.80
2018-05-14T15:29:03.519Z,20.90
2018-05-14T15:31:31.711Z,21.10
2018-05-14T15:33:59.138Z,21.40
2018-05-14T15:36:26.576Z,21.40
2018-05-14T15:38:54.023Z,21.50
2018-05-14T15:41:22.238Z,21.80
2018-05-14T15:43:49.700Z,21.80
2018-05-14T15:46:17.112Z,22.10
2018-05-14T15:48:44.551Z,21.80
2018-05-14T15:51:11.958Z,22.10
2018-05-14T15:53:39.386Z,23.00
2018-05-14T15:56:06.804Z,23.10
2018-05-14T15:58:34.247Z,22.90
2018-05-14T16:01:01.669Z,23.70
2018-05-14T16:03:29.093Z,24.80
2018-05-14T16:05:56.534Z,24.90
2018-05-14T16:08:23.946Z,26.10
2018-05-14T16:10:51.393Z,26.50
2018-05-14T16:13:18.820Z,26.70
2018-05-14T16:15:46.296Z,26.80
2018-05-14T16:18:14.543Z,27.30
2018-05-14T16:20:41.955Z,26.20
2018-05-14T16:23:09.371Z,24.80
2018-05-14T16:25:36.811Z,24.80
2018-05-14T16:28:04.217Z,24.60
2018-05-14T16:30:31.650Z,24.30
2018-05-14T16:32:59.093Z,24.20
2018-05-14T16:35:26.527Z,24.00
2018-05-14T16:37:53.959Z,23.80
2018-05-14T16:40:21.373Z,23.70
2018-05-14T16:42:49.559Z,23.60
2018-05-14T16:45:16.994Z,23.60
2018-05-14T16:47:44.433Z,24.40
2018-05-14T16:50:11.898Z,25.10
2018-05-14T16:52:39.336Z,27.50
2018-05-14T16:55:06.792Z,26.70
2018-05-14T16:57:34.294Z,27.40
2018-05-14T17:00:01.634Z,26.40
2018-05-14T17:02:29.146Z,27.20
2018-05-14T17:04:56.539Z,25.30
2018-05-14T17:07:23.941Z,24.50
2018-05-14T17:09:51.366Z,24.50
2018-05-14T17:12:18.777Z,24.30
2018-05-14T17:14:46.197Z,24.10
2018-05-14T17:17:13.621Z,24.00
2018-05-14T17:19:41.142Z,23.90
2018-05-14T17:22:08.571Z,23.70
2018-05-14T17:24:35.986Z,23.70
2018-05-14T17:27:03.416Z,23.70
2018-05-14T17:29:31.617Z,24.10
2018-05-14T17:31:59.809Z,23.70
2018-05-14T17:34:27.940Z,23.70
2018-05-14T17:36:55.370Z,23.60
2018-05-14T17:39:22.792Z,24.90
2018-05-14T17:41:50.261Z,23.80
2018-05-14T17:44:17.665Z,23.80
2018-05-14T17:46:45.868Z,23.70
2018-05-14T17:49:13.285Z,23.70
2018-05-14T17:51:40.714Z,23.60
2018-05-14T17:54:08.157Z,24.20
2018-05-14T17:56:36.343Z,24.80
2018-05-14T17:59:04.549Z,25.30
2018-05-14T18:01:31.998Z,25.60
2018-05-14T18:03:59.437Z,25.70
2018-05-14T18:06:26.885Z,25.70
2018-05-14T18:08:54.314Z,25.70
2018-05-14T18:11:22.500Z,25.50
2018-05-14T18:13:50.702Z,25.30
2018-05-14T18:16:18.132Z,25.20
2018-05-14T18:18:45.553Z,25.20
2018-05-14T18:21:15.182Z,25.70
2018-05-14T18:23:46.553Z,25.60
2018-05-14T18:26:16.776Z,24.90
2018-05-14T18:28:54.101Z,24.80
2018-05-14T18:31:27.742Z,24.60
2018-05-14T18:34:10.037Z,24.30
2018-05-14T18:36:37.496Z,24.30
2018-05-14T18:39:05.827Z,23.90
2018-05-14T18:41:34.012Z,23.20
2018-05-14T18:44:01.469Z,23.20
2018-05-14T18:46:28.915Z,23.00
2018-05-14T18:48:57.085Z,22.80
2018-05-14T18:51:25.289Z,22.70
2018-05-14T18:53:53.109Z,22.60
2018-05-14T18:56:20.532Z,22.50
2018-05-14T18:58:47.967Z,22.50
2018-05-14T19:01:15.378Z,22.30
2018-05-14T19:03:42.796Z,22.30
2018-05-14T19:06:10.220Z,22.20
2018-05-14T19:08:37.648Z,22.10
2018-05-14T19:11:10.796Z,22.00
2018-05-14T19:13:38.218Z,21.80
2018-05-14T19:16:11.418Z,21.80
2018-05-14T19:18:38.943Z,21.80
2018-05-14T19:21:06.292Z,21.70
2018-05-14T19:23:39.477Z,21.60
2018-05-14T19:26:07.663Z,21.50
2018-05-14T19:28:41.515Z,21.50
2018-05-14T19:31:08.947Z,21.50
2018-05-14T19:33:42.869Z,21.30
2018-05-14T19:36:11.080Z,21.20
2018-05-14T19:38:39.239Z,21.30
2018-05-14T19:41:06.655Z,21.20
2018-05-14T19:43:34.075Z,21.20
2018-05-14T19:46:01.488Z,21.10
2018-05-14T19:48:28.934Z,21.00
2018-05-14T19:50:57.127Z,21.00
2018-05-14T19:53:25.302Z,20.90
2018-05-14T19:55:53.488Z,20.80
2018-05-14T19:58:21.688Z,20.70
2018-05-14T20:00:49.109Z,20.70
2018-05-14T20:03:16.537Z,20.60
2018-05-14T20:05:43.957Z,20.50
2018-05-14T20:08:11.397Z,20.50
2018-05-14T20:10:38.815Z,20.40
2018-05-14T20:13:07.001Z,20.40
2018-05-14T20:15:35.189Z,20.30
2018-05-14T20:18:02.689Z,20.30
2018-05-14T20:20:30.120Z,20.20
2018-05-14T20:22:58.327Z,20.20
2018-05-14T20:25:25.757Z,20.10
2018-05-14T20:27:53.193Z,20.10
2018-05-14T20:30:20.626Z,20.00
2018-05-14T20:32:48.813Z,19.90
2018-05-14T20:35:16.269Z,19.90
2018-05-14T20:37:44.458Z,19.90
2018-05-14T20:40:12.640Z,19.80
2018-05-14T20:42:40.077Z,19.80
2018-05-14T20:45:07.556Z,19.80
2018-05-14T20:47:34.936Z,19.80
2018-05-14T20:50:02.385Z,19.80
2018-05-14T20:52:29.798Z,19.80
2018-05-14T20:54:57.992Z,19.60
2018-05-14T20:57:26.179Z,19.60
2018-05-14T20:59:53.635Z,19.50
2018-05-14T21:02:22.227Z,19.50
2018-05-14T21:04:49.705Z,19.40
2018-05-14T21:07:17.124Z,19.40
2018-05-14T21:09:44.565Z,19.30
2018-05-14T21:12:12.005Z,19.20
2018-05-14T21:14:40.241Z,19.10
2018-05-14T21:17:08.378Z,19.10
2018-05-14T21:19:36.575Z,19.00
2018-05-14T21:22:03.991Z,18.90
2018-05-14T21:24:31.432Z,18.90
2018-05-14T21:26:58.868Z,18.80
2018-05-14T21:29:26.299Z,18.70
2018-05-14T21:31:53.801Z,18.70
2018-05-14T21:34:21.243Z,18.60
2018-05-14T21:36:48.644Z,18.60
2018-05-14T21:39:16.837Z,18.50
2018-05-14T21:41:44.289Z,18.60
2018-05-14T21:44:11.711Z,18.60
2018-05-14T21:46:39.161Z,18.60
2018-05-14T21:49:06.584Z,18.60
2018-05-14T21:51:34.013Z,18.70
2018-05-14T21:54:01.441Z,18.70
2018-05-14T21:56:29.701Z,18.70
2018-05-14T21:58:57.836Z,18.60
2018-05-14T22:01:25.250Z,18.60
2018-05-14T22:03:52.656Z,18.60
2018-05-14T22:06:20.092Z,18.60
2018-05-14T22:08:47.523Z,18.60
2018-05-14T22:11:14.974Z,18.40
2018-05-14T22:13:42.378Z,18.30
2018-05-14T22:16:09.825Z,18.20
2018-05-14T22:18:37.241Z,18.10
2018-05-14T22:21:04.680Z,18.00
2018-05-14T22:23:32.105Z,17.90
2018-05-14T22:26:00.303Z,17.70
2018-05-14T22:28:27.722Z,17.70
2018-05-14T22:30:55.174Z,17.70
2018-05-14T22:33:22.600Z,17.60
2018-05-14T22:35:50.806Z,17.60
2018-05-14T22:38:18.238Z,17.60
2018-05-14T22:40:46.464Z,17.60
2018-05-14T22:43:13.893Z,17.50
2018-05-14T22:45:41.317Z,17.60
2018-05-14T22:48:08.748Z,17.50
2018-05-14T22:50:36.932Z,17.50
2018-05-14T22:53:05.132Z,17.40
2018-05-14T22:55:33.313Z,17.50
2018-05-14T22:58:00.737Z,17.40
2018-05-14T23:00:28.195Z,17.40
2018-05-14T23:02:55.645Z,17.40
2018-05-14T23:05:23.073Z,17.40
2018-05-14T23:07:51.275Z,17.30
2018-05-14T23:10:18.709Z,17.30
2018-05-14T23:12:46.128Z,17.30
2018-05-14T23:15:13.554Z,17.30
2018-05-14T23:17:41.748Z,17.20
2018-05-14T23:20:09.941Z,17.20
2018-05-14T23:22:43.869Z,17.20
2018-05-14T23:25:11.255Z,17.20
2018-05-14T23:27:38.688Z,17.10
2018-05-14T23:30:06.876Z,17.10
2018-05-14T23:32:35.114Z,17.10
2018-05-14T23:35:02.560Z,17.00
2018-05-14T23:37:30.457Z,17.00
2018-05-14T23:39:57.883Z,17.00
2018-05-14T23:42:25.297Z,16.90
2018-05-14T23:44:52.741Z,16.80
2018-05-14T23:47:20.926Z,16.70
2018-05-14T23:49:48.371Z,16.60
2018-05-14T23:52:15.800Z,16.60
2018-05-14T23:54:43.231Z,16.60
2018-05-14T23:57:11.414Z,16.50
2018-05-14T23:59:39.600Z,16.50
